Latest Weather Observations for Point Wilson

IDV60801

Issued at 2:05 pm EST Sunday 31 August 2014 (issued every 30 minutes, with the page automatically refreshed every 10 minutes)

About weather observations | Map of weather stations | Latest weather observations for VIC | Other Formats
Station Details ID: 087166 Name: POINT WILSON Lat: -38.10 Lon: 144.54 Height: 18.0 m
Data from the previous 72 hours. | See also: Recent months at Point Wilson
Date/Time
EST
Temp
°C
App
Temp
°C
Dew
Point
Rel
Hum
%
Delta-T
°C
Wind Press
QNH
hPa
Press
MSL
hPa
Rain
since 9 am
mm
Dir
 
Spd
km/h
Gust
km/h
Spd
kts
Gust
kts
31/02:00pm - - - - - N 33 41 18 22 - - -
31/01:30pm - - - - - NNW 35 41 19 22 - - -
31/01:00pm - - - - - N 39 44 21 24 - - -
31/12:30pm - - - - - N 39 44 21 24 - - -
31/12:00pm - - - - - N 35 41 19 22 - - -
31/11:30am - - - - - N 24 33 13 18 - - -
31/11:00am - - - - - N 28 33 15 18 - - -
31/10:30am - - - - - N 32 37 17 20 - - -
31/10:00am - - - - - ENE 22 24 12 13 - - -
31/09:30am - - - - - ENE 22 24 12 13 - - -
31/09:00am - - - - - ENE 20 24 11 13 - - -
31/08:30am - - - - - NE 19 20 10 11 - - -
31/08:00am - - - - - NE 19 22 10 12 - - -
31/07:30am - - - - - NE 22 26 12 14 - - -
31/07:00am - - - - - NE 20 24 11 13 - - -
31/06:30am - - - - - NNE 19 20 10 11 - - -
31/06:00am - - - - - NNE 19 20 10 11 - - -
31/05:30am - - - - - NNE 20 20 11 11 - - -
31/05:00am - - - - - NE 15 19 8 10 - - -
31/04:30am - - - - - NNE 17 20 9 11 - - -
31/04:00am - - - - - N 11 13 6 7 - - -
31/03:30am - - - - - N 13 13 7 7 - - -
31/03:00am - - - - - NNE 17 19 9 10 - - -
31/02:30am - - - - - NNE 15 19 8 10 - - -
31/02:00am - - - - - NNE 19 20 10 11 - - -
31/01:30am - - - - - NE 17 20 9 11 - - -
31/01:00am - - - - - NNE 2 9 1 5 - - -
31/12:30am - - - - - N 11 13 6 7 - - -
31/12:00am - - - - - N 15 19 8 10 - - -
 
Date/Time
EST
Temp
°C
App
Temp
°C
Dew
Point
Rel
Hum
%
Delta-T
°C
Wind Press
QNH
hPa
Press
MSL
hPa
Rain
since 9 am
mm
Dir
 
Spd
km/h
Gust
km/h
Spd
kts
Gust
kts
30/11:30pm - - - - - NNE 15 19 8 10 - - -
30/11:00pm - - - - - NE 15 17 8 9 - - -
30/10:30pm - - - - - NE 11 13 6 7 - - -
30/10:00pm - - - - - CALM 0 0 0 0 - - -
30/09:30pm - - - - - CALM 0 0 0 0 - - -
30/09:00pm - - - - - N 6 7 3 4 - - -
30/08:30pm - - - - - N 9 11 5 6 - - -
30/08:00pm - - - - - E 9 11 5 6 - - -
30/07:30pm - - - - - E 7 9 4 5 - - -
30/07:00pm - - - - - E 9 11 5 6 - - -
30/06:30pm - - - - - ESE 4 7 2 4 - - -
30/06:00pm - - - - - ESE 7 7 4 4 - - -
30/05:30pm - - - - - ESE 6 7 3 4 - - -
30/05:00pm - - - - - E 11 15 6 8 - - -
30/04:30pm - - - - - E 17 19 9 10 - - -
30/04:00pm - - - - - E 13 17 7 9 - - -
30/03:30pm - - - - - E 15 17 8 9 - - -
30/03:00pm - - - - - E 17 19 9 10 - - -
30/02:30pm - - - - - E 11 13 6 7 - - -
30/02:00pm - - - - - E 17 20 9 11 - - -
30/01:30pm - - - - - E 13 17 7 9 - - -
30/01:00pm - - - - - E 15 19 8 10 - - -
30/12:30pm - - - - - E 22 24 12 13 - - -
30/12:00pm - - - - - E 19 20 10 11 - - -
30/11:30am - - - - - E 15 17 8 9 - - -
30/11:00am - - - - - E 13 15 7 8 - - -
30/10:30am - - - - - NE 13 17 7 9 - - -
30/10:00am - - - - - NNE 11 17 6 9 - - -
30/09:30am - - - - - NNE 11 17 6 9 - - -
30/09:00am - - - - - NNE 11 15 6 8 - - -
30/08:30am - - - - - N 13 19 7 10 - - -
30/08:00am - - - - - N 13 17 7 9 - - -
30/07:30am - - - - - NNE 13 20 7 11 - - -
30/07:00am - - - - - NE 11 20 6 11 - - -
30/06:30am - - - - - NNE 11 17 6 9 - - -
30/06:00am - - - - - NNE 13 19 7 10 - - -
30/05:30am - - - - - E 13 15 7 8 - - -
30/05:00am - - - - - ESE 15 17 8 9 - - -
30/04:30am - - - - - ESE 17 20 9 11 - - -
30/04:00am - - - - - ESE 19 20 10 11 - - -
30/03:30am - - - - - ESE 17 20 9 11 - - -
30/03:00am - - - - - ESE 9 11 5 6 - - -
30/02:30am - - - - - ESE 9 11 5 6 - - -
30/02:00am - - - - - CALM 0 0 0 0 - - -
30/01:30am - - - - - S 6 7 3 4 - - -
30/01:00am - - - - - S 7 9 4 5 - - -
30/12:30am - - - - - S 7 9 4 5 - - -
30/12:00am - - - - - S 7 9 4 5 - - -
 
Date/Time
EST
Temp
°C
App
Temp
°C
Dew
Point
Rel
Hum
%
Delta-T
°C
Wind Press
QNH
hPa
Press
MSL
hPa
Rain
since 9 am
mm
Dir
 
Spd
km/h
Gust
km/h
Spd
kts
Gust
kts
29/11:30pm - - - - - SSE 11 13 6 7 - - -
29/11:00pm - - - - - S 11 15 6 8 - - -
29/10:30pm - - - - - SSE 13 15 7 8 - - -
29/10:00pm - - - - - S 11 13 6 7 - - -
29/09:30pm - - - - - SSE 13 15 7 8 - - -
29/09:00pm - - - - - SE 13 15 7 8 - - -
29/08:30pm - - - - - SE 13 17 7 9 - - -
29/08:00pm - - - - - SSE 11 15 6 8 - - -
29/07:30pm - - - - - SSE 15 19 8 10 - - -
29/07:00pm - - - - - S 13 15 7 8 - - -
29/06:30pm - - - - - S 13 15 7 8 - - -
29/06:00pm - - - - - SSE 15 17 8 9 - - -
29/05:30pm - - - - - CALM 0 0 0 0 - - -
29/05:00pm - - - - - ENE 6 7 3 4 - - -
29/04:30pm - - - - - ENE 13 15 7 8 - - -
29/04:00pm - - - - - ENE 13 17 7 9 - - -
29/03:30pm - - - - - ENE 15 17 8 9 - - -
29/03:00pm - - - - - ENE 13 15 7 8 - - -
29/02:30pm - - - - - ENE 17 19 9 10 - - -
29/02:00pm - - - - - NE 15 17 8 9 - - -
29/01:30pm - - - - - NE 13 15 7 8 - - -
29/01:00pm - - - - - NE 9 11 5 6 - - -
29/12:30pm - - - - - NE 9 11 5 6 - - -
29/12:00pm - - - - - NE 9 9 5 5 - - -
29/11:30am - - - - - ENE 6 9 3 5 - - -
29/11:00am - - - - - CALM 0 0 0 0 - - -
29/10:30am - - - - - CALM 0 4 0 2 - - -
29/10:00am - - - - - WNW 4 7 2 4 - - -
29/09:30am - - - - - WNW 7 11 4 6 - - -
29/09:00am - - - - - NW 11 13 6 7 - - -
29/08:30am - - - - - NW 9 11 5 6 - - -
29/08:00am - - - - - WNW 9 11 5 6 - - -
29/07:30am - - - - - W 13 17 7 9 - - -
29/07:00am - - - - - W 11 13 6 7 - - -
29/06:30am - - - - - W 11 15 6 8 - - -
29/06:00am - - - - - W 9 13 5 7 - - -
29/05:30am - - - - - WNW 6 9 3 5 - - -
29/05:00am - - - - - WNW 9 11 5 6 - - -
29/04:30am - - - - - WNW 11 13 6 7 - - -
29/04:00am - - - - - WNW 13 15 7 8 - - -
29/03:30am - - - - - WSW 11 13 6 7 - - -
29/03:00am - - - - - SW 11 13 6 7 - - -
29/02:30am - - - - - SW 13 15 7 8 - - -
29/02:00am - - - - - SW 13 17 7 9 - - -
29/01:30am - - - - - SW 13 17 7 9 - - -
29/01:00am - - - - - SW 11 13 6 7 - - -
29/12:30am - - - - - SW 13 17 7 9 - - -
29/12:00am - - - - - WSW 19 19 10 10 - - -
 
Date/Time
EST
Temp
°C
App
Temp
°C
Dew
Point
Rel
Hum
%
Delta-T
°C
Wind Press
QNH
hPa
Press
MSL
hPa
Rain
since 9 am
mm
Dir
 
Spd
km/h
Gust
km/h
Spd
kts
Gust
kts
28/11:30pm - - - - - W 13 15 7 8 - - -
28/11:00pm - - - - - WSW 7 9 4 5 - - -
28/10:30pm - - - - - S 4 7 2 4 - - -
28/10:00pm - - - - - S 7 9 4 5 - - -
28/09:30pm - - - - - SSW 13 15 7 8 - - -
28/09:00pm - - - - - SSW 15 17 8 9 - - -
28/08:30pm - - - - - SSW 13 15 7 8 - - -
28/08:00pm - - - - - SSW 15 17 8 9 - - -
28/07:30pm - - - - - SSW 19 20 10 11 - - -
28/07:00pm - - - - - SSW 19 20 10 11 - - -
28/06:30pm - - - - - SSW 19 22 10 12 - - -
28/06:00pm - - - - - ESE 4 7 2 4 - - -
28/05:30pm - - - - - E 11 13 6 7 - - -
28/05:00pm - - - - - E 13 15 7 8 - - -
28/04:30pm - - - - - E 15 17 8 9 - - -
28/04:00pm - - - - - E 17 19 9 10 - - -
28/03:30pm - - - - - ENE 17 20 9 11 - - -
28/03:00pm - - - - - ENE 15 17 8 9 - - -
28/02:30pm - - - - - E 9 13 5 7 - - -

Other Formats:

Comma delimited format used in spreadsheet applications
http://www.bom.gov.au/fwo/IDV60801/IDV60801.94847.axf

JavaScript Object Notation format (JSON) in row-major order
http://www.bom.gov.au/fwo/IDV60801/IDV60801.94847.json